createdAt,value
2019-05-28T00:01:36.201Z,5.37
2019-05-28T00:04:04.826Z,4.97
2019-05-28T00:06:33.266Z,5.70
2019-05-28T00:09:01.712Z,5.17
2019-05-28T00:11:30.158Z,5.03
2019-05-28T00:13:58.605Z,5.67
2019-05-28T00:16:27.051Z,4.93
2019-05-28T00:18:55.516Z,5.07
2019-05-28T00:21:23.948Z,5.40
2019-05-28T00:23:52.393Z,4.67
2019-05-28T00:26:20.836Z,5.47
2019-05-28T00:28:49.307Z,5.60
2019-05-28T00:31:17.763Z,5.60
2019-05-28T00:33:46.206Z,6.13
2019-05-28T00:36:14.658Z,6.43
2019-05-28T00:38:43.095Z,6.63
2019-05-28T00:41:11.594Z,5.87
2019-05-28T00:43:40.060Z,6.70
2019-05-28T00:46:08.485Z,6.17
2019-05-28T00:48:36.965Z,6.67
2019-05-28T00:51:05.458Z,6.43
2019-05-28T00:53:33.918Z,5.97
2019-05-28T00:56:02.910Z,6.33
2019-05-28T00:58:33.204Z,6.20
2019-05-28T01:01:01.654Z,5.93
2019-05-28T01:03:30.085Z,5.07
2019-05-28T01:05:58.538Z,5.37
2019-05-28T01:08:26.986Z,4.87
2019-05-28T01:10:55.453Z,5.63
2019-05-28T01:13:23.962Z,4.97
2019-05-28T01:15:52.400Z,4.07
2019-05-28T01:18:20.850Z,4.03
2019-05-28T01:20:49.302Z,3.80
2019-05-28T01:23:17.722Z,3.83
2019-05-28T01:25:46.182Z,3.90
2019-05-28T01:28:14.621Z,4.17
2019-05-28T01:30:54.617Z,3.67
2019-05-28T01:33:13.228Z,3.40
2019-05-28T01:35:42.143Z,3.53
2019-05-28T01:38:10.582Z,3.60
2019-05-28T01:40:39.043Z,4.27
2019-05-28T01:43:07.490Z,3.50
2019-05-28T01:45:36.011Z,3.30
2019-05-28T01:48:04.461Z,3.60
2019-05-28T01:50:32.975Z,3.70
2019-05-28T01:53:01.407Z,3.50
2019-05-28T01:55:29.848Z,3.30
2019-05-28T01:57:58.290Z,3.40
2019-05-28T02:00:26.907Z,3.10
2019-05-28T02:02:55.542Z,3.37
2019-05-28T02:05:24.052Z,3.40
2019-05-28T02:07:52.481Z,3.30
2019-05-28T02:10:21.104Z,3.67
2019-05-28T02:12:49.536Z,3.40
2019-05-28T02:15:18.562Z,3.47
2019-05-28T02:17:47.046Z,3.83
2019-05-28T02:20:15.762Z,3.50
2019-05-28T02:22:44.208Z,3.57
2019-05-28T02:25:13.043Z,3.60
2019-05-28T02:27:41.468Z,3.50
2019-05-28T02:30:15.297Z,3.53
2019-05-28T02:32:43.828Z,4.03
2019-05-28T02:35:12.983Z,3.80
2019-05-28T02:37:41.423Z,3.83
2019-05-28T02:40:10.673Z,3.90
2019-05-28T02:42:39.113Z,3.60
2019-05-28T02:45:11.052Z,3.60
2019-05-28T02:47:39.501Z,4.17
2019-05-28T02:50:10.115Z,4.00
2019-05-28T02:52:39.894Z,3.97
2019-05-28T02:55:09.806Z,3.67
2019-05-28T02:57:40.383Z,4.17
2019-05-28T03:00:14.147Z,4.10
2019-05-28T03:02:45.676Z,3.90
2019-05-28T03:05:14.357Z,3.73
2019-05-28T03:07:46.111Z,3.67
2019-05-28T03:10:16.676Z,3.80
2019-05-28T03:12:45.120Z,4.53
2019-05-28T03:15:13.709Z,3.40
2019-05-28T03:17:43.786Z,3.97
2019-05-28T03:20:12.577Z,3.63
2019-05-28T03:22:42.957Z,4.20
2019-05-28T03:25:11.471Z,3.87
2019-05-28T03:27:39.914Z,3.70
2019-05-28T03:30:08.983Z,3.67
2019-05-28T03:32:37.630Z,3.70
2019-05-28T03:35:07.135Z,3.93
2019-05-28T03:37:36.633Z,3.53
2019-05-28T03:40:06.783Z,3.97
2019-05-28T03:42:35.226Z,3.93
2019-05-28T03:45:06.079Z,3.83
2019-05-28T03:47:34.529Z,3.77
2019-05-28T03:50:04.344Z,4.10
2019-05-28T03:52:32.892Z,3.73
2019-05-28T03:55:01.348Z,3.87
2019-05-28T03:57:29.798Z,3.60
2019-05-28T03:59:58.285Z,4.10
2019-05-28T04:02:26.759Z,4.03
2019-05-28T04:04:55.202Z,4.47
2019-05-28T04:07:23.646Z,3.90
2019-05-28T04:09:52.083Z,4.07
2019-05-28T04:12:20.538Z,4.40
2019-05-28T04:14:48.973Z,3.67
2019-05-28T04:17:17.428Z,3.57
2019-05-28T04:19:45.867Z,4.03
2019-05-28T04:22:14.324Z,3.50
2019-05-28T04:24:42.750Z,3.60
2019-05-28T04:27:11.202Z,4.10
2019-05-28T04:29:39.635Z,3.40
2019-05-28T04:32:08.093Z,4.00
2019-05-28T04:34:36.523Z,4.40
2019-05-28T04:37:04.970Z,4.27
2019-05-28T04:39:35.441Z,3.53
2019-05-28T04:42:03.949Z,3.57
2019-05-28T04:44:32.439Z,4.10
2019-05-28T04:47:00.940Z,4.00
2019-05-28T04:49:29.441Z,3.67
2019-05-28T04:51:57.921Z,3.87
2019-05-28T04:54:26.362Z,3.93
2019-05-28T04:56:54.835Z,3.90
2019-05-28T04:59:23.271Z,3.13
2019-05-28T05:01:51.722Z,3.73
2019-05-28T05:04:20.174Z,3.80
2019-05-28T05:06:48.626Z,3.60
2019-05-28T05:09:17.063Z,3.60
2019-05-28T05:11:45.519Z,3.57
2019-05-28T05:14:13.961Z,3.47
2019-05-28T05:16:42.405Z,5.07
2019-05-28T05:19:10.867Z,4.23
2019-05-28T05:21:39.302Z,3.87
2019-05-28T05:24:07.755Z,3.40
2019-05-28T05:26:36.193Z,3.67
2019-05-28T05:29:04.713Z,3.50
2019-05-28T05:31:33.160Z,3.40
2019-05-28T05:34:01.693Z,3.23
2019-05-28T05:36:30.142Z,3.43
2019-05-28T05:38:58.655Z,3.50
2019-05-28T05:41:27.089Z,4.00
2019-05-28T05:43:55.543Z,3.97
2019-05-28T05:46:23.990Z,4.00
2019-05-28T05:48:52.500Z,3.67
2019-05-28T05:51:20.921Z,4.03
2019-05-28T05:53:49.375Z,3.50
2019-05-28T05:56:17.857Z,3.80
2019-05-28T05:58:49.179Z,3.70
2019-05-28T06:01:17.645Z,3.73
2019-05-28T06:03:47.685Z,3.40
2019-05-28T06:06:16.117Z,3.40
2019-05-28T06:08:44.638Z,3.10
2019-05-28T06:11:13.079Z,3.30
2019-05-28T06:13:41.532Z,3.77
2019-05-28T06:16:09.970Z,3.77
2019-05-28T06:18:38.404Z,3.27
2019-05-28T06:21:13.821Z,3.40
2019-05-28T06:23:37.029Z,3.57
2019-05-28T06:26:05.586Z,3.27
2019-05-28T06:28:34.074Z,3.20
2019-05-28T06:31:02.512Z,3.30
2019-05-28T06:33:30.950Z,3.00
2019-05-28T06:35:59.388Z,3.03
2019-05-28T06:38:27.941Z,2.90
2019-05-28T06:40:56.380Z,3.40
2019-05-28T06:43:24.830Z,2.90
2019-05-28T06:45:53.269Z,2.90
2019-05-28T06:48:21.727Z,2.47
2019-05-28T06:50:50.157Z,2.73
2019-05-28T06:53:18.602Z,2.90
2019-05-28T06:55:47.108Z,2.73
2019-05-28T06:58:15.553Z,3.20
2019-05-28T07:00:43.977Z,3.10
2019-05-28T07:03:12.442Z,3.57
2019-05-28T07:05:40.954Z,3.00
2019-05-28T07:08:09.427Z,3.03
2019-05-28T07:10:37.855Z,3.23
2019-05-28T07:13:06.324Z,3.10
2019-05-28T07:15:34.801Z,3.10
2019-05-28T07:18:03.243Z,4.63
2019-05-28T07:20:31.703Z,2.50
2019-05-28T07:23:00.204Z,3.03
2019-05-28T07:25:28.663Z,3.00
2019-05-28T07:28:10.426Z,3.17
2019-05-28T07:30:27.292Z,3.20
2019-05-28T07:32:55.780Z,2.80
2019-05-28T07:35:24.258Z,3.10
2019-05-28T07:37:52.695Z,2.90
2019-05-28T07:40:30.920Z,2.70
2019-05-28T07:42:51.306Z,2.70
2019-05-28T07:45:19.757Z,3.03
2019-05-28T07:47:48.191Z,2.90
2019-05-28T07:50:16.874Z,3.10
2019-05-28T07:52:45.314Z,3.20
2019-05-28T07:55:13.842Z,3.20
2019-05-28T07:57:42.275Z,2.70
2019-05-28T08:00:11.292Z,2.87
2019-05-28T08:02:39.698Z,2.77
2019-05-28T08:05:08.386Z,2.87
2019-05-28T08:07:36.878Z,2.87
2019-05-28T08:10:07.247Z,3.00
2019-05-28T08:12:35.904Z,3.23
2019-05-28T08:15:05.871Z,3.27
2019-05-28T08:17:34.322Z,3.30
2019-05-28T08:20:02.778Z,2.77
2019-05-28T08:22:41.803Z,2.73
2019-05-28T08:25:01.421Z,3.27
2019-05-28T08:27:29.916Z,3.03
2019-05-28T08:29:58.378Z,3.00
2019-05-28T08:32:26.812Z,3.30
2019-05-28T08:35:05.071Z,2.60
2019-05-28T08:37:25.419Z,2.83
2019-05-28T08:39:53.888Z,3.90
2019-05-28T08:42:22.324Z,3.07
2019-05-28T08:44:50.767Z,2.70
2019-05-28T08:47:19.290Z,3.23
2019-05-28T08:49:47.743Z,2.97
2019-05-28T08:52:16.186Z,3.20
2019-05-28T08:54:44.635Z,2.60
2019-05-28T08:57:13.147Z,2.73
2019-05-28T08:59:41.675Z,2.73
2019-05-28T09:02:26.279Z,2.70
2019-05-28T09:04:40.289Z,2.57
2019-05-28T09:07:08.734Z,2.63
2019-05-28T09:09:37.164Z,3.80
2019-05-28T09:12:05.624Z,2.97
2019-05-28T09:14:54.290Z,2.80
2019-05-28T09:17:04.722Z,2.43
2019-05-28T09:19:33.722Z,2.20
2019-05-28T09:22:02.229Z,2.57
2019-05-28T09:24:30.672Z,2.40
2019-05-28T09:26:59.129Z,2.90
2019-05-28T09:29:27.560Z,2.30
2019-05-28T09:31:56.019Z,2.60
2019-05-28T09:34:24.476Z,2.43
2019-05-28T09:36:52.933Z,2.97
2019-05-28T09:39:21.371Z,3.00
2019-05-28T09:41:49.824Z,2.30
2019-05-28T09:44:18.247Z,2.40
2019-05-28T09:46:46.698Z,2.47
2019-05-28T09:49:15.149Z,2.60
2019-05-28T09:51:43.586Z,2.67
2019-05-28T09:54:12.021Z,2.37
2019-05-28T09:56:40.478Z,2.47
2019-05-28T09:59:08.986Z,2.27
2019-05-28T10:01:37.875Z,2.77
2019-05-28T10:04:06.403Z,2.60
2019-05-28T10:06:37.842Z,2.80
2019-05-28T10:09:06.616Z,3.10
2019-05-28T10:11:35.163Z,2.70
2019-05-28T10:14:03.874Z,2.37
2019-05-28T10:16:32.345Z,2.10
2019-05-28T10:19:00.789Z,2.30
2019-05-28T10:21:29.257Z,2.17
2019-05-28T10:23:57.776Z,2.37
2019-05-28T10:26:26.232Z,1.83
2019-05-28T10:28:54.735Z,2.20
2019-05-28T10:31:23.194Z,1.83
2019-05-28T10:33:51.640Z,2.10
2019-05-28T10:36:35.262Z,1.83
2019-05-28T10:38:50.985Z,2.00
2019-05-28T10:41:19.485Z,1.97
2019-05-28T10:43:48.037Z,2.30
2019-05-28T10:46:16.534Z,2.27
2019-05-28T10:48:45.029Z,2.00
2019-05-28T10:51:13.498Z,1.90
2019-05-28T10:53:42.005Z,1.87
2019-05-28T10:56:10.693Z,2.67
2019-05-28T10:58:39.296Z,1.60
2019-05-28T11:01:07.806Z,1.83
2019-05-28T11:03:36.255Z,2.00
2019-05-28T11:06:04.849Z,2.07
2019-05-28T11:08:33.338Z,1.90
2019-05-28T11:11:01.849Z,1.90
2019-05-28T11:13:30.295Z,2.23
2019-05-28T11:15:58.749Z,2.37
2019-05-28T11:18:27.273Z,2.67
2019-05-28T11:20:55.712Z,2.23
2019-05-28T11:23:24.302Z,1.87
2019-05-28T11:25:52.734Z,2.43
2019-05-28T11:28:21.455Z,2.40
2019-05-28T11:30:49.897Z,3.67
2019-05-28T11:33:18.342Z,2.00
2019-05-28T11:35:46.860Z,5.20
2019-05-28T11:38:15.385Z,3.57
2019-05-28T11:40:43.830Z,2.30
2019-05-28T11:43:12.295Z,2.23
2019-05-28T11:45:40.749Z,2.67
2019-05-28T11:48:09.271Z,2.40
2019-05-28T11:50:37.807Z,2.00
2019-05-28T11:53:06.306Z,2.00
2019-05-28T11:55:34.757Z,1.73
2019-05-28T11:58:03.217Z,2.93
2019-05-28T12:00:32.495Z,2.67
2019-05-28T12:03:00.961Z,2.63
2019-05-28T12:05:29.405Z,2.30
2019-05-28T12:07:57.865Z,2.50
2019-05-28T12:10:26.575Z,2.60
2019-05-28T12:12:55.114Z,4.73
2019-05-28T12:15:23.735Z,2.37
2019-05-28T12:17:52.286Z,1.87
2019-05-28T12:20:23.032Z,2.40
2019-05-28T12:23:08.847Z,3.73
2019-05-28T12:25:21.758Z,2.20
2019-05-28T12:27:50.214Z,2.60
2019-05-28T12:30:19.295Z,2.23
2019-05-28T12:32:47.760Z,2.40
2019-05-28T12:35:28.012Z,2.13
2019-05-28T12:37:50.274Z,2.87
2019-05-28T12:40:18.789Z,2.70
2019-05-28T12:42:47.232Z,2.60
2019-05-28T12:45:16.601Z,2.27
2019-05-28T12:47:45.051Z,2.33
2019-05-28T12:50:19.678Z,2.47
2019-05-28T12:52:47.209Z,2.47
2019-05-28T12:55:16.673Z,2.90
2019-05-28T12:57:45.206Z,2.40
2019-05-28T13:00:14.818Z,2.23
2019-05-28T13:02:43.390Z,2.33
2019-05-28T13:05:14.259Z,2.50
2019-05-28T13:07:42.761Z,2.40
2019-05-28T13:10:11.442Z,2.20
2019-05-28T13:12:39.886Z,3.27
2019-05-28T13:15:08.675Z,2.30
2019-05-28T13:17:37.112Z,2.50
2019-05-28T13:20:06.498Z,2.37
2019-05-28T13:22:35.002Z,1.93
2019-05-28T13:25:05.254Z,2.37
2019-05-28T13:27:33.689Z,2.23
2019-05-28T13:30:02.500Z,2.80
2019-05-28T13:32:31.293Z,2.13
2019-05-28T13:34:59.762Z,2.37
2019-05-28T13:37:28.290Z,2.13
2019-05-28T13:39:56.762Z,2.43
2019-05-28T13:42:25.258Z,2.00
2019-05-28T13:44:53.715Z,2.43
2019-05-28T13:47:33.150Z,2.00
2019-05-28T13:49:52.393Z,1.87
2019-05-28T13:52:20.874Z,2.40
2019-05-28T13:54:49.364Z,1.67
2019-05-28T13:57:17.808Z,2.10
2019-05-28T13:59:46.259Z,2.30
2019-05-28T14:02:14.713Z,1.67
2019-05-28T14:04:43.153Z,1.87
2019-05-28T14:07:11.614Z,2.00
2019-05-28T14:09:40.115Z,2.00
2019-05-28T14:12:08.545Z,2.10
2019-05-28T14:14:36.993Z,2.17
2019-05-28T14:17:05.519Z,2.43
2019-05-28T14:19:33.999Z,2.07
2019-05-28T14:22:04.494Z,2.00
2019-05-28T14:24:32.671Z,1.80
2019-05-28T14:27:01.104Z,1.60
2019-05-28T14:29:29.558Z,2.07
2019-05-28T14:31:57.986Z,1.80
2019-05-28T14:34:26.471Z,2.10
2019-05-28T14:36:54.906Z,1.67
2019-05-28T14:39:39.648Z,1.87
2019-05-28T14:41:53.506Z,1.80
2019-05-28T14:44:21.953Z,1.90
2019-05-28T14:46:50.406Z,1.77
2019-05-28T14:49:18.947Z,2.00
2019-05-28T14:51:47.402Z,2.37
2019-05-28T14:54:15.833Z,1.83
2019-05-28T14:56:44.292Z,1.90
2019-05-28T14:59:12.762Z,1.73
2019-05-28T15:01:41.432Z,2.30
2019-05-28T15:04:10.087Z,2.10
2019-05-28T15:06:38.588Z,2.03
2019-05-28T15:09:20.320Z,2.10
2019-05-28T15:11:38.678Z,1.83
2019-05-28T15:14:07.112Z,1.80
2019-05-28T15:16:35.574Z,1.80
2019-05-28T15:19:04.093Z,1.80
2019-05-28T15:21:32.626Z,1.60
2019-05-28T15:24:01.137Z,1.70
2019-05-28T15:26:29.591Z,1.53
2019-05-28T15:28:58.025Z,1.60
2019-05-28T15:31:26.486Z,1.40
2019-05-28T15:33:54.928Z,1.30
2019-05-28T15:36:23.408Z,1.73
2019-05-28T15:38:51.876Z,1.93
2019-05-28T15:41:20.337Z,2.00
2019-05-28T15:43:48.879Z,1.30
2019-05-28T15:46:17.342Z,1.60
2019-05-28T15:48:45.766Z,1.77
2019-05-28T15:51:14.261Z,1.80
2019-05-28T15:53:42.756Z,1.40
2019-05-28T15:56:11.284Z,1.37
2019-05-28T15:58:39.717Z,1.40
2019-05-28T16:01:08.180Z,1.77
2019-05-28T16:03:36.623Z,1.40
2019-05-28T16:06:05.236Z,1.30
2019-05-28T16:08:33.809Z,1.20
2019-05-28T16:11:02.296Z,1.27
2019-05-28T16:13:30.730Z,1.40
2019-05-28T16:15:59.181Z,1.57
2019-05-28T16:18:27.618Z,1.23
2019-05-28T16:20:56.075Z,1.37
2019-05-28T16:23:24.544Z,1.20
2019-05-28T16:25:52.993Z,1.57
2019-05-28T16:28:21.439Z,1.20
2019-05-28T16:30:49.887Z,1.20
2019-05-28T16:33:18.361Z,1.50
2019-05-28T16:35:46.820Z,1.30
2019-05-28T16:38:15.264Z,1.57
2019-05-28T16:40:43.891Z,1.27
2019-05-28T16:43:12.481Z,1.20
2019-05-28T16:45:40.912Z,1.30
2019-05-28T16:48:09.353Z,1.47
2019-05-28T16:50:37.792Z,1.70
2019-05-28T16:53:06.252Z,1.50
2019-05-28T16:55:34.694Z,1.50
2019-05-28T16:58:03.233Z,1.70
2019-05-28T17:00:31.754Z,1.80
2019-05-28T17:03:00.250Z,1.63
2019-05-28T17:05:28.704Z,1.20
2019-05-28T17:07:57.162Z,1.73
2019-05-28T17:10:33.009Z,1.23
2019-05-28T17:12:55.864Z,1.63
2019-05-28T17:15:24.343Z,1.40
2019-05-28T17:17:52.805Z,1.37
2019-05-28T17:20:21.321Z,1.60
2019-05-28T17:22:49.789Z,1.50
2019-05-28T17:25:18.351Z,1.60
2019-05-28T17:27:46.923Z,1.30
2019-05-28T17:30:20.624Z,1.20
2019-05-28T17:32:45.775Z,1.20
2019-05-28T17:35:14.415Z,1.10
2019-05-28T17:37:42.879Z,1.40
2019-05-28T17:40:11.449Z,1.30
2019-05-28T17:42:39.909Z,1.50
2019-05-28T17:45:09.383Z,1.60
2019-05-28T17:47:43.028Z,1.60
2019-05-28T17:50:08.503Z,1.30
2019-05-28T17:52:37.068Z,1.40
2019-05-28T17:55:06.543Z,1.20
2019-05-28T17:57:35.065Z,1.50
2019-05-28T18:00:04.563Z,1.60
2019-05-28T18:02:33.095Z,1.20
2019-05-28T18:05:01.895Z,1.47
2019-05-28T18:07:30.684Z,1.57
2019-05-28T18:09:59.130Z,1.40
2019-05-28T18:12:27.589Z,1.33
2019-05-28T18:14:56.073Z,1.33
2019-05-28T18:17:24.585Z,1.60
2019-05-28T18:19:53.027Z,1.23
2019-05-28T18:22:21.577Z,1.10
2019-05-28T18:24:50.026Z,1.30
2019-05-28T18:27:18.495Z,1.20
2019-05-28T18:29:46.954Z,1.00
2019-05-28T18:32:15.470Z,1.10
2019-05-28T18:34:43.910Z,1.20
2019-05-28T18:37:12.365Z,1.23
2019-05-28T18:39:40.802Z,1.00
2019-05-28T18:42:09.303Z,1.03
2019-05-28T18:44:37.769Z,1.70
2019-05-28T18:47:06.207Z,1.27
2019-05-28T18:49:34.678Z,1.20
2019-05-28T18:52:03.112Z,1.80
2019-05-28T18:54:31.561Z,1.50
2019-05-28T18:56:59.994Z,1.43
2019-05-28T18:59:28.575Z,1.20
2019-05-28T19:01:59.252Z,1.40
2019-05-28T19:04:27.331Z,1.50
2019-05-28T19:06:55.758Z,1.60
2019-05-28T19:09:24.218Z,1.50
2019-05-28T19:11:52.662Z,1.50
2019-05-28T19:14:21.135Z,1.40
2019-05-28T19:16:49.593Z,1.03
2019-05-28T19:19:18.115Z,1.30
2019-05-28T19:21:46.558Z,1.03
2019-05-28T19:24:15.011Z,1.37
2019-05-28T19:26:43.487Z,1.60
2019-05-28T19:29:11.980Z,1.30
2019-05-28T19:31:40.425Z,1.23
2019-05-28T19:34:09.241Z,1.30
2019-05-28T19:36:37.863Z,1.50
2019-05-28T19:39:07.349Z,1.30
2019-05-28T19:41:35.787Z,1.13
2019-05-28T19:44:04.320Z,1.40
2019-05-28T19:46:32.823Z,1.13
2019-05-28T19:49:01.297Z,1.50
2019-05-28T19:51:29.789Z,1.40
2019-05-28T19:53:58.238Z,1.30
2019-05-28T19:56:26.670Z,1.23
2019-05-28T19:58:55.122Z,1.40
2019-05-28T20:01:23.828Z,1.10
2019-05-28T20:03:52.277Z,1.43
2019-05-28T20:06:20.721Z,1.30
2019-05-28T20:08:49.182Z,1.20
2019-05-28T20:11:17.613Z,1.50
2019-05-28T20:13:46.063Z,1.63
2019-05-28T20:16:14.504Z,1.30
2019-05-28T20:18:42.959Z,1.50
2019-05-28T20:21:11.396Z,1.17
2019-05-28T20:23:39.872Z,1.30
2019-05-28T20:26:08.399Z,1.43
2019-05-28T20:28:36.855Z,1.43
2019-05-28T20:31:05.979Z,1.27
2019-05-28T20:33:34.506Z,1.30
2019-05-28T20:36:03.695Z,1.40
2019-05-28T20:38:32.179Z,1.40
2019-05-28T20:41:01.916Z,1.10
2019-05-28T20:43:30.598Z,1.87
2019-05-28T20:46:00.230Z,1.73
2019-05-28T20:48:28.778Z,1.87
2019-05-28T20:51:07.764Z,1.30
2019-05-28T20:53:35.625Z,1.10
2019-05-28T20:55:58.697Z,1.27
2019-05-28T20:58:39.373Z,1.10
2019-05-28T21:00:57.883Z,1.20
2019-05-28T21:03:26.443Z,1.10
2019-05-28T21:05:55.028Z,1.10
2019-05-28T21:08:23.479Z,1.30
2019-05-28T21:10:52.588Z,1.20
2019-05-28T21:13:21.167Z,1.03
2019-05-28T21:15:50.625Z,1.40
2019-05-28T21:18:19.172Z,1.30
2019-05-28T21:20:47.623Z,1.00
2019-05-28T21:23:17.989Z,1.20
2019-05-28T21:25:46.293Z,1.30
2019-05-28T21:28:14.742Z,1.13
2019-05-28T21:30:43.209Z,1.20
2019-05-28T21:33:11.742Z,1.27
2019-05-28T21:35:40.197Z,1.20
2019-05-28T21:38:08.635Z,1.40
2019-05-28T21:40:37.081Z,1.30
2019-05-28T21:43:09.529Z,1.23
2019-05-28T21:45:35.716Z,1.50
2019-05-28T21:48:04.354Z,1.30
2019-05-28T21:50:32.813Z,1.60
2019-05-28T21:53:01.309Z,1.40
2019-05-28T21:55:29.800Z,1.20
2019-05-28T21:57:58.250Z,1.30
2019-05-28T22:00:46.199Z,1.33
2019-05-28T22:03:14.632Z,1.20
2019-05-28T22:05:43.092Z,1.30
2019-05-28T22:08:11.527Z,1.10
2019-05-28T22:10:39.982Z,1.13
2019-05-28T22:13:21.276Z,1.50
2019-05-28T22:15:38.591Z,1.43
2019-05-28T22:18:07.147Z,1.30
2019-05-28T22:20:35.614Z,1.30
2019-05-28T22:23:04.673Z,1.60
2019-05-28T22:25:33.260Z,1.30
2019-05-28T22:28:02.808Z,1.20
2019-05-28T22:30:31.339Z,1.30
2019-05-28T22:33:00.029Z,1.40
2019-05-28T22:35:28.611Z,1.30
2019-05-28T22:37:57.209Z,1.50
2019-05-28T22:40:25.733Z,1.57
2019-05-28T22:42:54.172Z,1.07
2019-05-28T22:45:22.791Z,1.50
2019-05-28T22:47:51.514Z,1.13
2019-05-28T22:50:23.158Z,1.53
2019-05-28T22:52:50.628Z,1.40
2019-05-28T22:55:19.072Z,1.27
2019-05-28T22:57:47.524Z,1.37
2019-05-28T23:00:16.495Z,1.30
2019-05-28T23:02:44.946Z,1.40
2019-05-28T23:05:13.513Z,1.50
2019-05-28T23:07:41.986Z,1.40
2019-05-28T23:10:10.833Z,1.20
2019-05-28T23:12:39.290Z,1.70
2019-05-28T23:15:10.650Z,1.37
2019-05-28T23:17:39.106Z,1.40
2019-05-28T23:20:08.876Z,1.10
2019-05-28T23:22:37.510Z,1.43
2019-05-28T23:25:07.697Z,1.40
2019-05-28T23:27:36.203Z,1.20
2019-05-28T23:30:20.057Z,1.30
2019-05-28T23:32:36.674Z,1.40
2019-05-28T23:35:06.671Z,1.30
2019-05-28T23:37:35.139Z,1.40
2019-05-28T23:40:05.010Z,1.57
2019-05-28T23:42:33.478Z,1.60
2019-05-28T23:45:01.925Z,1.83
2019-05-28T23:47:30.384Z,1.23
2019-05-28T23:49:58.825Z,1.40
2019-05-28T23:52:27.279Z,1.43
2019-05-28T23:54:55.787Z,1.40
2019-05-28T23:57:24.257Z,1.17
2019-05-28T23:59:52.753Z,1.30
